sensor_id;sensor_type;location;lat;lon;timestamp;P1;durP1;ratioP1;P2;durP2;ratioP2
57389;SDS011;43217;52.694;6.214;2023-08-06T00:00:18;16.95;;;15.35;;
57389;SDS011;43217;52.694;6.214;2023-08-06T00:02:44;17.40;;;15.80;;
57389;SDS011;43217;52.694;6.214;2023-08-06T00:05:10;17.20;;;15.55;;
57389;SDS011;43217;52.694;6.214;2023-08-06T00:07:37;17.08;;;15.43;;
57389;SDS011;43217;52.694;6.214;2023-08-06T00:10:03;16.80;;;15.18;;
57389;SDS011;43217;52.694;6.214;2023-08-06T00:12:28;16.08;;;14.48;;
57389;SDS011;43217;52.694;6.214;2023-08-06T00:14:54;16.85;;;15.25;;
57389;SDS011;43217;52.694;6.214;2023-08-06T00:17:20;16.63;;;15.02;;
57389;SDS011;43217;52.694;6.214;2023-08-06T00:19:45;17.15;;;15.63;;
57389;SDS011;43217;52.694;6.214;2023-08-06T00:22:11;16.83;;;15.23;;
57389;SDS011;43217;52.694;6.214;2023-08-06T00:24:37;17.05;;;15.25;;
57389;SDS011;43217;52.694;6.214;2023-08-06T00:27:02;16.10;;;14.60;;
57389;SDS011;43217;52.694;6.214;2023-08-06T00:29:28;17.77;;;15.93;;
57389;SDS011;43217;52.694;6.214;2023-08-06T00:31:54;16.73;;;15.05;;
57389;SDS011;43217;52.694;6.214;2023-08-06T00:34:20;16.05;;;14.52;;
57389;SDS011;43217;52.694;6.214;2023-08-06T00:36:46;15.75;;;14.30;;
57389;SDS011;43217;52.694;6.214;2023-08-06T00:39:11;15.95;;;14.40;;
57389;SDS011;43217;52.694;6.214;2023-08-06T00:41:37;15.57;;;14.07;;
57389;SDS011;43217;52.694;6.214;2023-08-06T00:44:03;15.80;;;14.25;;
57389;SDS011;43217;52.694;6.214;2023-08-06T00:46:29;15.50;;;13.85;;
57389;SDS011;43217;52.694;6.214;2023-08-06T00:48:55;14.80;;;13.43;;
57389;SDS011;43217;52.694;6.214;2023-08-06T00:51:21;16.75;;;15.05;;
57389;SDS011;43217;52.694;6.214;2023-08-06T00:53:48;16.13;;;14.52;;
57389;SDS011;43217;52.694;6.214;2023-08-06T00:58:40;15.55;;;13.98;;
57389;SDS011;43217;52.694;6.214;2023-08-06T01:01:06;16.35;;;14.77;;
57389;SDS011;43217;52.694;6.214;2023-08-06T01:03:32;17.23;;;15.50;;
57389;SDS011;43217;52.694;6.214;2023-08-06T01:05:58;15.23;;;13.82;;
57389;SDS011;43217;52.694;6.214;2023-08-06T01:11:08;15.77;;;14.13;;
57389;SDS011;43217;52.694;6.214;2023-08-06T01:13:46;16.00;;;14.40;;
57389;SDS011;43217;52.694;6.214;2023-08-06T01:16:18;15.88;;;14.27;;
57389;SDS011;43217;52.694;6.214;2023-08-06T01:18:46;15.90;;;14.35;;
57389;SDS011;43217;52.694;6.214;2023-08-06T01:21:18;16.00;;;14.50;;
57389;SDS011;43217;52.694;6.214;2023-08-06T01:23:44;16.75;;;15.05;;
57389;SDS011;43217;52.694;6.214;2023-08-06T01:31:41;15.68;;;14.07;;
57389;SDS011;43217;52.694;6.214;2023-08-06T01:34:13;15.18;;;13.73;;
57389;SDS011;43217;52.694;6.214;2023-08-06T01:36:43;16.58;;;14.98;;
57389;SDS011;43217;52.694;6.214;2023-08-06T01:39:09;16.88;;;15.10;;
57389;SDS011;43217;52.694;6.214;2023-08-06T01:41:35;15.52;;;14.02;;
57389;SDS011;43217;52.694;6.214;2023-08-06T01:44:00;15.48;;;13.85;;
57389;SDS011;43217;52.694;6.214;2023-08-06T01:46:26;17.52;;;15.85;;
57389;SDS011;43217;52.694;6.214;2023-08-06T01:48:52;15.98;;;14.48;;
57389;SDS011;43217;52.694;6.214;2023-08-06T01:51:17;16.73;;;15.18;;
57389;SDS011;43217;52.694;6.214;2023-08-06T01:53:43;15.98;;;14.38;;
57389;SDS011;43217;52.694;6.214;2023-08-06T01:56:09;14.63;;;13.23;;
57389;SDS011;43217;52.694;6.214;2023-08-06T01:58:36;17.10;;;15.50;;
57389;SDS011;43217;52.694;6.214;2023-08-06T02:01:02;15.65;;;14.15;;
57389;SDS011;43217;52.694;6.214;2023-08-06T02:03:27;16.00;;;14.50;;
57389;SDS011;43217;52.694;6.214;2023-08-06T02:05:53;15.80;;;14.30;;
57389;SDS011;43217;52.694;6.214;2023-08-06T02:08:19;15.70;;;14.20;;
57389;SDS011;43217;52.694;6.214;2023-08-06T02:10:45;15.60;;;14.02;;
57389;SDS011;43217;52.694;6.214;2023-08-06T02:13:14;15.57;;;13.95;;
57389;SDS011;43217;52.694;6.214;2023-08-06T02:15:43;14.25;;;13.00;;
57389;SDS011;43217;52.694;6.214;2023-08-06T02:18:09;14.85;;;13.35;;
57389;SDS011;43217;52.694;6.214;2023-08-06T02:20:34;14.77;;;13.50;;
57389;SDS011;43217;52.694;6.214;2023-08-06T02:23:00;15.55;;;14.05;;
57389;SDS011;43217;52.694;6.214;2023-08-06T02:25:26;16.02;;;14.32;;
57389;SDS011;43217;52.694;6.214;2023-08-06T02:27:57;14.70;;;13.32;;
57389;SDS011;43217;52.694;6.214;2023-08-06T02:30:22;16.60;;;14.90;;
57389;SDS011;43217;52.694;6.214;2023-08-06T02:32:50;21.08;;;15.75;;
57389;SDS011;43217;52.694;6.214;2023-08-06T02:35:16;16.75;;;15.10;;
57389;SDS011;43217;52.694;6.214;2023-08-06T02:37:41;17.30;;;15.48;;
57389;SDS011;43217;52.694;6.214;2023-08-06T02:40:07;17.35;;;15.68;;
57389;SDS011;43217;52.694;6.214;2023-08-06T02:42:33;16.77;;;15.23;;
57389;SDS011;43217;52.694;6.214;2023-08-06T02:44:59;17.40;;;15.82;;
57389;SDS011;43217;52.694;6.214;2023-08-06T02:47:25;16.88;;;15.25;;
57389;SDS011;43217;52.694;6.214;2023-08-06T02:49:50;17.38;;;15.68;;
57389;SDS011;43217;52.694;6.214;2023-08-06T02:52:16;17.70;;;16.10;;
57389;SDS011;43217;52.694;6.214;2023-08-06T02:54:42;15.35;;;13.98;;
57389;SDS011;43217;52.694;6.214;2023-08-06T02:57:08;18.83;;;16.20;;
57389;SDS011;43217;52.694;6.214;2023-08-06T02:59:33;16.77;;;15.18;;
57389;SDS011;43217;52.694;6.214;2023-08-06T03:01:59;19.48;;;16.98;;
57389;SDS011;43217;52.694;6.214;2023-08-06T03:04:24;18.08;;;16.25;;
57389;SDS011;43217;52.694;6.214;2023-08-06T03:06:50;18.60;;;16.10;;
57389;SDS011;43217;52.694;6.214;2023-08-06T03:09:16;20.42;;;17.20;;
57389;SDS011;43217;52.694;6.214;2023-08-06T03:11:42;17.73;;;16.02;;
57389;SDS011;43217;52.694;6.214;2023-08-06T03:14:08;17.35;;;15.65;;
57389;SDS011;43217;52.694;6.214;2023-08-06T03:16:34;18.27;;;16.48;;
57389;SDS011;43217;52.694;6.214;2023-08-06T03:19:00;17.42;;;15.63;;
57389;SDS011;43217;52.694;6.214;2023-08-06T03:21:26;18.85;;;16.95;;
57389;SDS011;43217;52.694;6.214;2023-08-06T03:23:52;17.90;;;16.02;;
57389;SDS011;43217;52.694;6.214;2023-08-06T03:26:17;17.58;;;15.88;;
57389;SDS011;43217;52.694;6.214;2023-08-06T03:28:43;18.33;;;16.42;;
57389;SDS011;43217;52.694;6.214;2023-08-06T03:31:09;16.70;;;15.10;;
57389;SDS011;43217;52.694;6.214;2023-08-06T03:33:35;16.92;;;15.32;;
57389;SDS011;43217;52.694;6.214;2023-08-06T03:36:00;16.08;;;14.48;;
57389;SDS011;43217;52.694;6.214;2023-08-06T03:38:26;17.42;;;15.68;;
57389;SDS011;43217;52.694;6.214;2023-08-06T03:40:53;18.08;;;16.13;;
57389;SDS011;43217;52.694;6.214;2023-08-06T03:43:18;17.88;;;16.10;;
57389;SDS011;43217;52.694;6.214;2023-08-06T03:45:44;17.08;;;15.40;;
57389;SDS011;43217;52.694;6.214;2023-08-06T03:48:10;17.10;;;15.50;;
57389;SDS011;43217;52.694;6.214;2023-08-06T03:50:35;15.63;;;14.23;;
57389;SDS011;43217;52.694;6.214;2023-08-06T03:53:01;16.23;;;14.73;;
57389;SDS011;43217;52.694;6.214;2023-08-06T03:55:27;15.55;;;14.02;;
57389;SDS011;43217;52.694;6.214;2023-08-06T03:57:53;15.57;;;14.18;;
57389;SDS011;43217;52.694;6.214;2023-08-06T04:00:18;15.68;;;14.18;;
57389;SDS011;43217;52.694;6.214;2023-08-06T04:02:45;14.43;;;13.13;;
57389;SDS011;43217;52.694;6.214;2023-08-06T04:05:11;14.50;;;13.10;;
57389;SDS011;43217;52.694;6.214;2023-08-06T04:07:37;16.10;;;14.60;;
57389;SDS011;43217;52.694;6.214;2023-08-06T04:10:03;15.63;;;13.90;;
57389;SDS011;43217;52.694;6.214;2023-08-06T04:12:29;19.90;;;15.30;;
57389;SDS011;43217;52.694;6.214;2023-08-06T04:14:57;16.13;;;14.52;;
57389;SDS011;43217;52.694;6.214;2023-08-06T04:17:23;15.18;;;13.73;;
57389;SDS011;43217;52.694;6.214;2023-08-06T04:19:53;14.82;;;13.43;;
57389;SDS011;43217;52.694;6.214;2023-08-06T04:22:19;15.23;;;13.80;;
57389;SDS011;43217;52.694;6.214;2023-08-06T04:24:45;14.60;;;13.20;;
57389;SDS011;43217;52.694;6.214;2023-08-06T04:27:13;15.00;;;13.60;;
57389;SDS011;43217;52.694;6.214;2023-08-06T04:29:41;15.55;;;13.98;;
57389;SDS011;43217;52.694;6.214;2023-08-06T04:32:07;14.75;;;13.32;;
57389;SDS011;43217;52.694;6.214;2023-08-06T04:34:34;15.30;;;13.70;;
57389;SDS011;43217;52.694;6.214;2023-08-06T04:37:00;14.93;;;13.52;;
57389;SDS011;43217;52.694;6.214;2023-08-06T04:39:26;14.80;;;13.40;;
57389;SDS011;43217;52.694;6.214;2023-08-06T04:41:52;14.93;;;13.43;;
57389;SDS011;43217;52.694;6.214;2023-08-06T04:44:17;15.35;;;13.57;;
57389;SDS011;43217;52.694;6.214;2023-08-06T04:46:43;15.30;;;13.80;;
57389;SDS011;43217;52.694;6.214;2023-08-06T04:49:09;14.48;;;12.30;;
57389;SDS011;43217;52.694;6.214;2023-08-06T04:51:35;14.93;;;13.43;;
57389;SDS011;43217;52.694;6.214;2023-08-06T04:54:00;14.20;;;12.82;;
57389;SDS011;43217;52.694;6.214;2023-08-06T04:56:26;15.40;;;13.88;;
57389;SDS011;43217;52.694;6.214;2023-08-06T04:58:52;15.38;;;13.90;;
57389;SDS011;43217;52.694;6.214;2023-08-06T05:01:18;15.60;;;14.13;;
57389;SDS011;43217;52.694;6.214;2023-08-06T05:03:44;15.38;;;13.80;;
57389;SDS011;43217;52.694;6.214;2023-08-06T05:06:10;15.98;;;14.43;;
57389;SDS011;43217;52.694;6.214;2023-08-06T05:08:36;15.90;;;14.40;;
57389;SDS011;43217;52.694;6.214;2023-08-06T05:11:02;15.40;;;13.88;;
57389;SDS011;43217;52.694;6.214;2023-08-06T05:13:27;15.52;;;14.05;;
57389;SDS011;43217;52.694;6.214;2023-08-06T05:15:53;15.02;;;13.63;;
57389;SDS011;43217;52.694;6.214;2023-08-06T05:18:19;15.60;;;14.02;;
57389;SDS011;43217;52.694;6.214;2023-08-06T05:20:45;14.50;;;13.20;;
57389;SDS011;43217;52.694;6.214;2023-08-06T05:23:11;16.00;;;14.40;;
57389;SDS011;43217;52.694;6.214;2023-08-06T05:25:39;16.50;;;14.85;;
57389;SDS011;43217;52.694;6.214;2023-08-06T05:28:05;15.30;;;13.80;;
57389;SDS011;43217;52.694;6.214;2023-08-06T05:30:31;15.63;;;14.02;;
57389;SDS011;43217;52.694;6.214;2023-08-06T05:32:57;14.45;;;12.95;;
57389;SDS011;43217;52.694;6.214;2023-08-06T05:35:22;14.15;;;12.68;;
57389;SDS011;43217;52.694;6.214;2023-08-06T05:37:49;15.80;;;14.20;;
57389;SDS011;43217;52.694;6.214;2023-08-06T05:40:15;13.77;;;12.50;;
57389;SDS011;43217;52.694;6.214;2023-08-06T05:42:41;15.25;;;13.82;;
57389;SDS011;43217;52.694;6.214;2023-08-06T05:45:07;15.15;;;12.43;;
57389;SDS011;43217;52.694;6.214;2023-08-06T05:47:33;15.57;;;14.07;;
57389;SDS011;43217;52.694;6.214;2023-08-06T05:49:59;14.68;;;13.07;;
57389;SDS011;43217;52.694;6.214;2023-08-06T05:52:24;14.27;;;12.88;;
57389;SDS011;43217;52.694;6.214;2023-08-06T05:54:50;13.95;;;12.65;;
57389;SDS011;43217;52.694;6.214;2023-08-06T05:57:16;15.13;;;13.65;;
57389;SDS011;43217;52.694;6.214;2023-08-06T05:59:42;14.75;;;13.43;;
57389;SDS011;43217;52.694;6.214;2023-08-06T06:02:07;13.65;;;12.20;;
57389;SDS011;43217;52.694;6.214;2023-08-06T06:04:33;15.10;;;13.75;;
57389;SDS011;43217;52.694;6.214;2023-08-06T06:06:59;14.70;;;13.30;;
57389;SDS011;43217;52.694;6.214;2023-08-06T06:09:24;14.50;;;13.20;;
57389;SDS011;43217;52.694;6.214;2023-08-06T06:11:50;15.27;;;13.88;;
57389;SDS011;43217;52.694;6.214;2023-08-06T06:14:16;15.25;;;13.90;;
57389;SDS011;43217;52.694;6.214;2023-08-06T06:16:43;14.70;;;13.40;;
57389;SDS011;43217;52.694;6.214;2023-08-06T06:19:08;15.05;;;13.57;;
57389;SDS011;43217;52.694;6.214;2023-08-06T06:21:34;14.95;;;13.57;;
57389;SDS011;43217;52.694;6.214;2023-08-06T06:24:00;14.80;;;13.40;;
57389;SDS011;43217;52.694;6.214;2023-08-06T06:26:25;14.75;;;13.35;;
57389;SDS011;43217;52.694;6.214;2023-08-06T06:28:51;15.63;;;14.23;;
57389;SDS011;43217;52.694;6.214;2023-08-06T06:31:17;15.10;;;13.70;;
57389;SDS011;43217;52.694;6.214;2023-08-06T06:33:42;15.55;;;14.15;;
57389;SDS011;43217;52.694;6.214;2023-08-06T06:36:08;16.48;;;14.93;;
57389;SDS011;43217;52.694;6.214;2023-08-06T06:38:34;16.20;;;14.80;;
57389;SDS011;43217;52.694;6.214;2023-08-06T06:41:00;15.45;;;14.00;;
57389;SDS011;43217;52.694;6.214;2023-08-06T06:43:28;15.13;;;13.73;;
57389;SDS011;43217;52.694;6.214;2023-08-06T06:45:57;16.10;;;14.65;;
57389;SDS011;43217;52.694;6.214;2023-08-06T06:48:24;15.45;;;14.05;;
57389;SDS011;43217;52.694;6.214;2023-08-06T06:50:51;15.48;;;14.07;;
57389;SDS011;43217;52.694;6.214;2023-08-06T06:53:16;15.43;;;14.02;;
57389;SDS011;43217;52.694;6.214;2023-08-06T06:55:44;14.90;;;13.60;;
57389;SDS011;43217;52.694;6.214;2023-08-06T06:58:10;15.65;;;14.15;;
57389;SDS011;43217;52.694;6.214;2023-08-06T07:00:36;15.20;;;13.80;;
57389;SDS011;43217;52.694;6.214;2023-08-06T07:03:08;14.93;;;13.52;;
57389;SDS011;43217;52.694;6.214;2023-08-06T07:05:34;15.45;;;13.98;;
57389;SDS011;43217;52.694;6.214;2023-08-06T07:08:02;16.30;;;14.60;;
57389;SDS011;43217;52.694;6.214;2023-08-06T07:10:27;15.65;;;14.35;;
57389;SDS011;43217;52.694;6.214;2023-08-06T07:12:53;15.55;;;14.20;;
57389;SDS011;43217;52.694;6.214;2023-08-06T07:15:19;16.95;;;15.45;;
57389;SDS011;43217;52.694;6.214;2023-08-06T07:17:45;17.05;;;15.45;;
57389;SDS011;43217;52.694;6.214;2023-08-06T07:20:10;16.63;;;15.15;;
57389;SDS011;43217;52.694;6.214;2023-08-06T07:22:36;17.42;;;15.82;;
57389;SDS011;43217;52.694;6.214;2023-08-06T07:25:02;16.88;;;15.38;;
57389;SDS011;43217;52.694;6.214;2023-08-06T07:27:28;18.15;;;16.48;;
57389;SDS011;43217;52.694;6.214;2023-08-06T07:29:53;19.17;;;17.48;;
57389;SDS011;43217;52.694;6.214;2023-08-06T07:32:19;17.52;;;15.95;;
57389;SDS011;43217;52.694;6.214;2023-08-06T07:34:45;19.17;;;17.58;;
57389;SDS011;43217;52.694;6.214;2023-08-06T07:37:10;18.35;;;16.73;;
57389;SDS011;43217;52.694;6.214;2023-08-06T07:39:36;18.30;;;16.70;;
57389;SDS011;43217;52.694;6.214;2023-08-06T07:42:13;17.75;;;16.02;;
57389;SDS011;43217;52.694;6.214;2023-08-06T07:44:39;19.48;;;17.60;;
57389;SDS011;43217;52.694;6.214;2023-08-06T07:47:05;18.95;;;17.45;;
57389;SDS011;43217;52.694;6.214;2023-08-06T07:49:32;18.20;;;16.70;;
57389;SDS011;43217;52.694;6.214;2023-08-06T07:51:57;17.38;;;15.88;;
57389;SDS011;43217;52.694;6.214;2023-08-06T07:54:23;18.35;;;16.73;;
57389;SDS011;43217;52.694;6.214;2023-08-06T07:56:51;19.02;;;17.33;;
57389;SDS011;43217;52.694;6.214;2023-08-06T08:01:42;17.58;;;15.93;;
57389;SDS011;43217;52.694;6.214;2023-08-06T08:04:08;17.13;;;15.73;;
57389;SDS011;43217;52.694;6.214;2023-08-06T08:06:34;18.40;;;16.80;;
57389;SDS011;43217;52.694;6.214;2023-08-06T08:09:00;18.50;;;16.90;;
57389;SDS011;43217;52.694;6.214;2023-08-06T08:11:26;18.75;;;17.25;;
57389;SDS011;43217;52.694;6.214;2023-08-06T08:13:52;17.75;;;16.35;;
57389;SDS011;43217;52.694;6.214;2023-08-06T08:16:17;18.15;;;16.40;;
57389;SDS011;43217;52.694;6.214;2023-08-06T08:18:43;18.27;;;16.85;;
57389;SDS011;43217;52.694;6.214;2023-08-06T08:21:08;17.10;;;15.77;;
57389;SDS011;43217;52.694;6.214;2023-08-06T08:23:34;17.40;;;15.98;;
57389;SDS011;43217;52.694;6.214;2023-08-06T08:26:00;15.68;;;14.23;;
57389;SDS011;43217;52.694;6.214;2023-08-06T08:28:27;15.48;;;14.20;;
57389;SDS011;43217;52.694;6.214;2023-08-06T08:30:52;16.67;;;15.18;;
57389;SDS011;43217;52.694;6.214;2023-08-06T08:33:18;16.58;;;15.27;;
57389;SDS011;43217;52.694;6.214;2023-08-06T08:35:45;15.45;;;14.18;;
57389;SDS011;43217;52.694;6.214;2023-08-06T08:38:12;14.82;;;13.68;;
57389;SDS011;43217;52.694;6.214;2023-08-06T08:40:38;14.95;;;13.73;;
57389;SDS011;43217;52.694;6.214;2023-08-06T08:43:10;15.48;;;14.10;;
57389;SDS011;43217;52.694;6.214;2023-08-06T08:45:39;14.95;;;13.65;;
57389;SDS011;43217;52.694;6.214;2023-08-06T08:48:07;14.95;;;13.75;;
57389;SDS011;43217;52.694;6.214;2023-08-06T08:50:34;14.40;;;13.20;;
57389;SDS011;43217;52.694;6.214;2023-08-06T08:52:59;14.75;;;13.55;;
57389;SDS011;43217;52.694;6.214;2023-08-06T08:55:25;13.30;;;12.30;;
57389;SDS011;43217;52.694;6.214;2023-08-06T08:57:51;12.88;;;11.95;;
57389;SDS011;43217;52.694;6.214;2023-08-06T09:00:17;12.55;;;11.55;;
57389;SDS011;43217;52.694;6.214;2023-08-06T09:02:44;11.32;;;10.52;;
57389;SDS011;43217;52.694;6.214;2023-08-06T09:05:11;12.50;;;11.60;;
57389;SDS011;43217;52.694;6.214;2023-08-06T09:07:48;12.03;;;10.97;;
57389;SDS011;43217;52.694;6.214;2023-08-06T09:10:14;13.00;;;11.90;;
57389;SDS011;43217;52.694;6.214;2023-08-06T09:12:43;11.98;;;10.98;;
57389;SDS011;43217;52.694;6.214;2023-08-06T09:15:10;12.10;;;11.10;;
57389;SDS011;43217;52.694;6.214;2023-08-06T09:17:36;11.45;;;10.55;;
57389;SDS011;43217;52.694;6.214;2023-08-06T09:20:09;11.48;;;10.68;;
57389;SDS011;43217;52.694;6.214;2023-08-06T09:22:35;12.07;;;11.18;;
57389;SDS011;43217;52.694;6.214;2023-08-06T09:25:01;12.48;;;11.57;;
57389;SDS011;43217;52.694;6.214;2023-08-06T09:27:28;12.63;;;11.73;;
57389;SDS011;43217;52.694;6.214;2023-08-06T09:29:54;11.00;;;10.25;;
57389;SDS011;43217;52.694;6.214;2023-08-06T09:32:20;11.88;;;11.05;;
57389;SDS011;43217;52.694;6.214;2023-08-06T09:34:45;12.70;;;11.70;;
57389;SDS011;43217;52.694;6.214;2023-08-06T09:37:11;11.68;;;10.88;;
57389;SDS011;43217;52.694;6.214;2023-08-06T09:39:38;11.80;;;10.88;;
57389;SDS011;43217;52.694;6.214;2023-08-06T09:42:08;12.15;;;11.18;;
57389;SDS011;43217;52.694;6.214;2023-08-06T09:44:33;11.05;;;10.25;;
57389;SDS011;43217;52.694;6.214;2023-08-06T09:47:00;11.23;;;10.43;;
57389;SDS011;43217;52.694;6.214;2023-08-06T09:49:40;11.20;;;10.23;;
57389;SDS011;43217;52.694;6.214;2023-08-06T09:52:12;11.48;;;10.57;;
57389;SDS011;43217;52.694;6.214;2023-08-06T09:54:38;9.77;;;9.00;;
57389;SDS011;43217;52.694;6.214;2023-08-06T09:57:04;10.40;;;9.38;;
57389;SDS011;43217;52.694;6.214;2023-08-06T09:59:30;9.95;;;9.25;;
57389;SDS011;43217;52.694;6.214;2023-08-06T10:01:57;10.13;;;9.40;;
57389;SDS011;43217;52.694;6.214;2023-08-06T10:04:23;9.48;;;8.77;;
57389;SDS011;43217;52.694;6.214;2023-08-06T10:06:49;9.10;;;8.40;;
57389;SDS011;43217;52.694;6.214;2023-08-06T10:09:15;8.60;;;8.00;;
57389;SDS011;43217;52.694;6.214;2023-08-06T10:11:42;8.02;;;7.43;;
57389;SDS011;43217;52.694;6.214;2023-08-06T10:14:13;7.43;;;6.93;;
57389;SDS011;43217;52.694;6.214;2023-08-06T10:16:49;7.72;;;7.13;;
57389;SDS011;43217;52.694;6.214;2023-08-06T10:19:16;7.80;;;7.18;;
57389;SDS011;43217;52.694;6.214;2023-08-06T10:22:07;7.68;;;7.07;;
57389;SDS011;43217;52.694;6.214;2023-08-06T10:24:48;7.03;;;6.63;;
57389;SDS011;43217;52.694;6.214;2023-08-06T10:32:48;7.63;;;7.03;;
57389;SDS011;43217;52.694;6.214;2023-08-06T10:38:12;7.90;;;7.20;;
57389;SDS011;43217;52.694;6.214;2023-08-06T10:43:24;7.25;;;6.65;;
57389;SDS011;43217;52.694;6.214;2023-08-06T10:45:53;7.30;;;6.80;;
57389;SDS011;43217;52.694;6.214;2023-08-06T10:48:39;8.23;;;7.57;;
57389;SDS011;43217;52.694;6.214;2023-08-06T10:51:07;7.82;;;6.93;;
57389;SDS011;43217;52.694;6.214;2023-08-06T10:53:35;7.32;;;6.82;;
57389;SDS011;43217;52.694;6.214;2023-08-06T10:56:01;8.10;;;7.40;;
57389;SDS011;43217;52.694;6.214;2023-08-06T10:58:33;6.20;;;5.70;;
57389;SDS011;43217;52.694;6.214;2023-08-06T11:00:59;6.20;;;5.70;;
57389;SDS011;43217;52.694;6.214;2023-08-06T11:03:26;6.38;;;5.93;;
57389;SDS011;43217;52.694;6.214;2023-08-06T11:05:52;5.55;;;5.15;;
57389;SDS011;43217;52.694;6.214;2023-08-06T11:08:27;6.35;;;5.85;;
57389;SDS011;43217;52.694;6.214;2023-08-06T11:10:54;5.72;;;5.22;;
57389;SDS011;43217;52.694;6.214;2023-08-06T11:13:21;5.68;;;5.28;;
57389;SDS011;43217;52.694;6.214;2023-08-06T11:15:47;5.82;;;5.30;;
57389;SDS011;43217;52.694;6.214;2023-08-06T11:18:12;5.40;;;5.10;;
57389;SDS011;43217;52.694;6.214;2023-08-06T11:20:38;6.13;;;5.68;;
57389;SDS011;43217;52.694;6.214;2023-08-06T11:23:05;6.50;;;6.00;;
57389;SDS011;43217;52.694;6.214;2023-08-06T11:25:31;6.20;;;5.70;;
57389;SDS011;43217;52.694;6.214;2023-08-06T11:28:01;7.13;;;6.53;;
57389;SDS011;43217;52.694;6.214;2023-08-06T11:30:26;5.57;;;5.10;;
57389;SDS011;43217;52.694;6.214;2023-08-06T11:32:52;5.38;;;4.97;;
57389;SDS011;43217;52.694;6.214;2023-08-06T11:35:18;5.28;;;4.88;;
57389;SDS011;43217;52.694;6.214;2023-08-06T11:37:44;4.88;;;3.40;;
57389;SDS011;43217;52.694;6.214;2023-08-06T11:42:37;3.60;;;2.90;;
57389;SDS011;43217;52.694;6.214;2023-08-06T11:45:03;3.40;;;3.10;;
57389;SDS011;43217;52.694;6.214;2023-08-06T11:47:29;3.67;;;3.37;;
57389;SDS011;43217;52.694;6.214;2023-08-06T11:49:55;3.40;;;3.10;;
57389;SDS011;43217;52.694;6.214;2023-08-06T11:52:22;3.80;;;3.35;;
57389;SDS011;43217;52.694;6.214;2023-08-06T11:55:08;3.85;;;3.10;;
57389;SDS011;43217;52.694;6.214;2023-08-06T11:57:39;3.97;;;3.08;;
57389;SDS011;43217;52.694;6.214;2023-08-06T12:00:10;2.97;;;2.78;;
57389;SDS011;43217;52.694;6.214;2023-08-06T12:02:41;3.08;;;2.80;;
57389;SDS011;43217;52.694;6.214;2023-08-06T12:05:14;3.70;;;3.40;;
57389;SDS011;43217;52.694;6.214;2023-08-06T12:07:41;3.35;;;3.05;;
57389;SDS011;43217;52.694;6.214;2023-08-06T12:10:12;2.97;;;2.65;;
57389;SDS011;43217;52.694;6.214;2023-08-06T12:12:39;2.70;;;2.50;;
57389;SDS011;43217;52.694;6.214;2023-08-06T12:15:06;2.85;;;2.55;;
57389;SDS011;43217;52.694;6.214;2023-08-06T12:17:32;2.83;;;2.60;;
57389;SDS011;43217;52.694;6.214;2023-08-06T12:19:58;2.60;;;2.40;;
57389;SDS011;43217;52.694;6.214;2023-08-06T12:22:25;3.05;;;2.30;;
57389;SDS011;43217;52.694;6.214;2023-08-06T12:24:50;3.20;;;2.90;;
57389;SDS011;43217;52.694;6.214;2023-08-06T12:27:17;2.70;;;2.50;;
57389;SDS011;43217;52.694;6.214;2023-08-06T12:29:47;3.77;;;2.80;;
57389;SDS011;43217;52.694;6.214;2023-08-06T12:32:13;3.08;;;2.50;;
57389;SDS011;43217;52.694;6.214;2023-08-06T12:34:40;2.35;;;2.13;;
57389;SDS011;43217;52.694;6.214;2023-08-06T12:37:06;2.13;;;1.92;;
57389;SDS011;43217;52.694;6.214;2023-08-06T12:39:32;1.90;;;1.80;;
57389;SDS011;43217;52.694;6.214;2023-08-06T12:41:59;2.28;;;2.08;;
57389;SDS011;43217;52.694;6.214;2023-08-06T12:44:29;2.28;;;2.00;;
57389;SDS011;43217;52.694;6.214;2023-08-06T12:46:56;1.85;;;1.75;;
57389;SDS011;43217;52.694;6.214;2023-08-06T12:49:22;2.60;;;2.40;;
57389;SDS011;43217;52.694;6.214;2023-08-06T12:51:49;3.50;;;3.20;;
57389;SDS011;43217;52.694;6.214;2023-08-06T12:56:44;3.47;;;3.17;;
57389;SDS011;43217;52.694;6.214;2023-08-06T12:59:11;3.83;;;3.40;;
57389;SDS011;43217;52.694;6.214;2023-08-06T13:01:38;3.58;;;3.38;;
57389;SDS011;43217;52.694;6.214;2023-08-06T13:04:04;4.63;;;4.22;;
57389;SDS011;43217;52.694;6.214;2023-08-06T13:06:30;3.92;;;3.63;;
57389;SDS011;43217;52.694;6.214;2023-08-06T13:08:58;3.80;;;3.30;;
57389;SDS011;43217;52.694;6.214;2023-08-06T13:11:24;3.25;;;3.00;;
57389;SDS011;43217;52.694;6.214;2023-08-06T13:13:51;3.72;;;3.45;;
57389;SDS011;43217;52.694;6.214;2023-08-06T13:16:16;3.45;;;3.15;;
57389;SDS011;43217;52.694;6.214;2023-08-06T13:18:42;3.50;;;3.20;;
57389;SDS011;43217;52.694;6.214;2023-08-06T13:21:08;3.38;;;3.08;;
57389;SDS011;43217;52.694;6.214;2023-08-06T13:23:33;3.05;;;2.85;;
57389;SDS011;43217;52.694;6.214;2023-08-06T13:25:59;3.97;;;3.60;;
57389;SDS011;43217;52.694;6.214;2023-08-06T13:28:24;4.00;;;3.05;;
57389;SDS011;43217;52.694;6.214;2023-08-06T13:30:50;3.78;;;3.33;;
57389;SDS011;43217;52.694;6.214;2023-08-06T13:33:17;4.18;;;3.78;;
57389;SDS011;43217;52.694;6.214;2023-08-06T13:35:42;5.53;;;4.18;;
57389;SDS011;43217;52.694;6.214;2023-08-06T13:38:08;4.15;;;3.78;;
57389;SDS011;43217;52.694;6.214;2023-08-06T13:40:35;4.63;;;4.22;;
57389;SDS011;43217;52.694;6.214;2023-08-06T13:43:01;5.45;;;4.93;;
57389;SDS011;43217;52.694;6.214;2023-08-06T13:45:26;5.82;;;5.32;;
57389;SDS011;43217;52.694;6.214;2023-08-06T13:47:52;5.07;;;4.68;;
57389;SDS011;43217;52.694;6.214;2023-08-06T13:50:18;6.07;;;5.63;;
57389;SDS011;43217;52.694;6.214;2023-08-06T13:52:44;7.00;;;6.40;;
57389;SDS011;43217;52.694;6.214;2023-08-06T13:55:10;7.60;;;7.00;;
57389;SDS011;43217;52.694;6.214;2023-08-06T13:57:36;7.90;;;7.20;;
57389;SDS011;43217;52.694;6.214;2023-08-06T14:00:02;8.65;;;7.82;;
57389;SDS011;43217;52.694;6.214;2023-08-06T14:02:29;9.45;;;8.40;;
57389;SDS011;43217;52.694;6.214;2023-08-06T14:04:54;9.18;;;8.30;;
57389;SDS011;43217;52.694;6.214;2023-08-06T14:07:20;8.15;;;7.50;;
57389;SDS011;43217;52.694;6.214;2023-08-06T14:09:46;8.77;;;8.07;;
57389;SDS011;43217;52.694;6.214;2023-08-06T14:12:12;11.98;;;8.80;;
57389;SDS011;43217;52.694;6.214;2023-08-06T14:14:38;8.55;;;7.70;;
57389;SDS011;43217;52.694;6.214;2023-08-06T14:17:04;9.00;;;8.07;;
57389;SDS011;43217;52.694;6.214;2023-08-06T14:19:30;9.25;;;8.35;;
57389;SDS011;43217;52.694;6.214;2023-08-06T14:21:56;10.90;;;9.50;;
57389;SDS011;43217;52.694;6.214;2023-08-06T14:24:21;14.05;;;11.23;;
57389;SDS011;43217;52.694;6.214;2023-08-06T14:26:47;10.27;;;9.27;;
57389;SDS011;43217;52.694;6.214;2023-08-06T14:29:13;12.75;;;11.27;;
57389;SDS011;43217;52.694;6.214;2023-08-06T14:31:39;13.07;;;10.43;;
57389;SDS011;43217;52.694;6.214;2023-08-06T14:34:05;10.77;;;9.77;;
57389;SDS011;43217;52.694;6.214;2023-08-06T14:36:31;9.57;;;8.77;;
57389;SDS011;43217;52.694;6.214;2023-08-06T14:38:57;10.93;;;9.82;;
57389;SDS011;43217;52.694;6.214;2023-08-06T14:41:23;9.48;;;8.57;;
57389;SDS011;43217;52.694;6.214;2023-08-06T14:43:49;11.00;;;9.90;;
57389;SDS011;43217;52.694;6.214;2023-08-06T14:46:15;12.02;;;10.13;;
57389;SDS011;43217;52.694;6.214;2023-08-06T14:48:41;11.07;;;9.98;;
57389;SDS011;43217;52.694;6.214;2023-08-06T14:51:07;11.35;;;10.25;;
57389;SDS011;43217;52.694;6.214;2023-08-06T14:53:33;11.88;;;9.57;;